createdAt,value
2018-11-14T00:00:34.461Z,8.00
2018-11-14T00:03:05.275Z,8.00
2018-11-14T00:05:36.062Z,8.00
2018-11-14T00:08:06.997Z,7.90
2018-11-14T00:10:37.622Z,7.80
2018-11-14T00:13:08.148Z,7.80
2018-11-14T00:15:38.770Z,7.70
2018-11-14T00:18:09.349Z,7.70
2018-11-14T00:20:39.907Z,7.70
2018-11-14T00:23:10.457Z,7.70
2018-11-14T00:25:41.067Z,7.70
2018-11-14T00:28:11.782Z,7.60
2018-11-14T00:30:42.414Z,7.60
2018-11-14T00:33:13.031Z,7.60
2018-11-14T00:35:43.596Z,7.60
2018-11-14T00:38:14.221Z,7.60
2018-11-14T00:40:44.754Z,7.50
2018-11-14T00:43:15.417Z,7.50
2018-11-14T00:45:46.196Z,7.50
2018-11-14T00:48:16.955Z,7.50
2018-11-14T00:50:47.405Z,7.40
2018-11-14T00:53:18.042Z,7.40
2018-11-14T00:55:50.286Z,7.40
2018-11-14T00:58:21.119Z,7.40
2018-11-14T01:00:51.757Z,7.40
2018-11-14T01:03:22.490Z,7.40
2018-11-14T01:05:53.307Z,7.30
2018-11-14T01:08:24.051Z,7.30
2018-11-14T01:10:54.852Z,7.20
2018-11-14T01:13:25.433Z,7.20
2018-11-14T01:15:56.153Z,7.10
2018-11-14T01:18:26.730Z,7.10
2018-11-14T01:20:57.542Z,7.10
2018-11-14T01:23:28.190Z,7.00
2018-11-14T01:25:58.827Z,7.00
2018-11-14T01:28:29.562Z,7.00
2018-11-14T01:31:00.182Z,7.00
2018-11-14T01:33:30.909Z,6.90
2018-11-14T01:36:01.472Z,6.90
2018-11-14T01:38:32.088Z,6.90
2018-11-14T01:41:02.784Z,6.80
2018-11-14T01:43:33.424Z,6.80
2018-11-14T01:46:04.001Z,6.80
2018-11-14T01:48:34.710Z,6.80
2018-11-14T01:51:05.391Z,6.80
2018-11-14T01:53:36.062Z,6.70
2018-11-14T01:56:06.959Z,6.70
2018-11-14T01:58:37.534Z,6.60
2018-11-14T02:01:08.140Z,6.60
2018-11-14T02:03:38.798Z,6.60
2018-11-14T02:06:09.436Z,6.60
2018-11-14T02:08:39.981Z,6.50
2018-11-14T02:11:10.544Z,6.50
2018-11-14T02:13:41.128Z,6.50
2018-11-14T02:16:11.777Z,6.40
2018-11-14T02:18:42.315Z,6.40
2018-11-14T02:21:12.944Z,6.40
2018-11-14T02:23:44.021Z,6.40
2018-11-14T02:26:14.620Z,6.30
2018-11-14T02:28:45.136Z,6.30
2018-11-14T02:31:15.824Z,6.30
2018-11-14T02:33:46.397Z,6.30
2018-11-14T02:36:17.017Z,6.30
2018-11-14T02:38:47.541Z,6.30
2018-11-14T02:41:18.225Z,6.30
2018-11-14T02:43:48.859Z,6.20
2018-11-14T02:46:19.395Z,6.20
2018-11-14T02:48:50.055Z,6.20
2018-11-14T02:51:26.104Z,6.20
2018-11-14T02:53:56.726Z,6.10
2018-11-14T02:56:27.403Z,6.10
2018-11-14T02:58:58.032Z,6.10
2018-11-14T03:01:28.558Z,6.10
2018-11-14T03:03:59.236Z,6.10
2018-11-14T03:06:29.987Z,6.00
2018-11-14T03:09:00.610Z,6.00
2018-11-14T03:11:31.213Z,6.00
2018-11-14T03:14:02.016Z,5.90
2018-11-14T03:16:32.851Z,5.90
2018-11-14T03:19:03.497Z,5.90
2018-11-14T03:21:34.227Z,5.90
2018-11-14T03:24:04.927Z,5.90
2018-11-14T03:26:35.526Z,5.90
2018-11-14T03:29:06.315Z,5.80
2018-11-14T03:31:36.963Z,5.80
2018-11-14T03:34:07.719Z,5.80
2018-11-14T03:36:38.552Z,5.80
2018-11-14T03:39:10.700Z,5.80
2018-11-14T03:41:41.515Z,5.80
2018-11-14T03:44:12.216Z,5.70
2018-11-14T03:46:42.951Z,5.70
2018-11-14T03:49:13.626Z,5.60
2018-11-14T03:51:44.362Z,5.60
2018-11-14T03:54:16.922Z,5.60
2018-11-14T03:56:47.620Z,5.60
2018-11-14T03:59:18.306Z,5.60
2018-11-14T04:01:48.935Z,5.50
2018-11-14T04:04:19.535Z,5.60
2018-11-14T04:06:50.307Z,5.50
2018-11-14T04:09:20.894Z,5.50
2018-11-14T04:11:51.563Z,5.50
2018-11-14T04:14:23.202Z,5.50
2018-11-14T04:16:53.737Z,5.50
2018-11-14T04:19:24.559Z,5.40
2018-11-14T04:21:55.461Z,5.40
2018-11-14T04:24:26.074Z,5.40
2018-11-14T04:26:56.650Z,5.40
2018-11-14T04:29:27.160Z,5.40
2018-11-14T04:31:57.877Z,5.40
2018-11-14T04:34:28.449Z,5.40
2018-11-14T04:36:59.053Z,5.40
2018-11-14T04:39:29.791Z,5.40
2018-11-14T04:42:00.492Z,5.40
2018-11-14T04:44:31.153Z,5.30
2018-11-14T04:47:02.010Z,5.30
2018-11-14T04:49:32.897Z,5.30
2018-11-14T04:52:03.470Z,5.30
2018-11-14T04:54:33.947Z,5.30
2018-11-14T04:57:04.672Z,5.20
2018-11-14T04:59:35.308Z,5.20
2018-11-14T05:02:06.327Z,5.20
2018-11-14T05:04:36.941Z,5.20
2018-11-14T05:07:08.052Z,5.10
2018-11-14T05:09:38.825Z,5.10
2018-11-14T05:12:09.581Z,5.00
2018-11-14T05:14:40.315Z,5.00
2018-11-14T05:17:10.870Z,5.00
2018-11-14T05:19:41.726Z,4.90
2018-11-14T05:22:12.376Z,5.00
2018-11-14T05:24:43.043Z,4.90
2018-11-14T05:27:13.857Z,4.90
2018-11-14T05:29:44.708Z,4.90
2018-11-14T05:32:15.305Z,4.90
2018-11-14T05:34:45.933Z,4.90
2018-11-14T05:37:16.821Z,4.90
2018-11-14T05:39:47.553Z,4.90
2018-11-14T05:42:18.301Z,4.90
2018-11-14T05:44:49.056Z,4.90
2018-11-14T05:47:19.577Z,4.90
2018-11-14T05:49:50.107Z,4.90
2018-11-14T05:52:20.856Z,4.90
2018-11-14T05:54:51.489Z,4.80
2018-11-14T05:57:22.209Z,4.80
2018-11-14T05:59:52.819Z,4.80
2018-11-14T06:02:23.420Z,4.80
2018-11-14T06:04:54.057Z,4.80
2018-11-14T06:07:24.817Z,4.80
2018-11-14T06:09:55.436Z,4.70
2018-11-14T06:12:25.955Z,4.70
2018-11-14T06:14:56.600Z,4.70
2018-11-14T06:17:27.526Z,4.70
2018-11-14T06:19:58.070Z,4.70
2018-11-14T06:22:28.909Z,4.70
2018-11-14T06:25:13.511Z,4.80
2018-11-14T06:27:44.199Z,4.80
2018-11-14T06:30:14.988Z,4.80
2018-11-14T06:46:04.519Z,4.70
2018-11-14T06:48:35.468Z,4.90
2018-11-14T06:51:06.276Z,4.80
2018-11-14T06:53:37.983Z,4.80
2018-11-14T06:56:08.830Z,4.80
2018-11-14T06:58:42.120Z,4.70
2018-11-14T07:01:12.973Z,4.70
2018-11-14T07:03:45.802Z,4.70
2018-11-14T07:06:16.670Z,4.70
2018-11-14T07:08:47.650Z,4.60
2018-11-14T07:11:18.534Z,4.60
2018-11-14T07:13:49.440Z,4.60
2018-11-14T07:16:20.292Z,4.60
2018-11-14T07:18:51.128Z,4.60
2018-11-14T07:21:23.675Z,4.60
2018-11-14T07:24:01.166Z,4.60
2018-11-14T07:26:32.404Z,4.60
2018-11-14T07:29:03.370Z,4.60
2018-11-14T07:31:36.606Z,4.60
2018-11-14T07:34:07.730Z,4.60
2018-11-14T07:36:38.445Z,4.60
2018-11-14T07:39:10.557Z,4.60
2018-11-14T07:41:41.960Z,4.60
2018-11-14T07:44:13.567Z,4.60
2018-11-14T07:46:44.491Z,4.60
2018-11-14T07:49:17.410Z,4.60
2018-11-14T07:51:48.276Z,4.70
2018-11-14T07:54:19.108Z,4.70
2018-11-14T07:56:50.413Z,4.70
2018-11-14T07:59:21.173Z,4.70
2018-11-14T08:01:53.512Z,4.70
2018-11-14T08:04:24.451Z,4.70
2018-11-14T08:06:57.728Z,4.80
2018-11-14T08:09:28.548Z,4.80
2018-11-14T08:11:59.361Z,4.80
2018-11-14T08:14:31.560Z,4.90
2018-11-14T08:17:03.956Z,4.80
2018-11-14T08:19:36.404Z,4.90
2018-11-14T08:22:07.270Z,5.00
2018-11-14T08:24:38.100Z,5.00
2018-11-14T08:27:09.083Z,5.10
2018-11-14T08:29:40.085Z,5.20
2018-11-14T08:32:10.934Z,5.40
2018-11-14T08:34:41.754Z,5.60
2018-11-14T08:37:16.207Z,5.70
2018-11-14T08:39:47.068Z,5.70
2018-11-14T08:42:19.651Z,5.80
2018-11-14T08:44:50.506Z,6.00
2018-11-14T08:47:21.298Z,6.10
2018-11-14T08:49:52.418Z,6.20
2018-11-14T08:52:23.986Z,6.20
2018-11-14T08:54:56.416Z,6.30
2018-11-14T08:57:27.217Z,6.30
2018-11-14T08:59:58.167Z,6.40
2018-11-14T09:02:29.102Z,6.50
2018-11-14T09:05:00.153Z,6.60
2018-11-14T09:07:31.355Z,6.70
2018-11-14T09:10:06.844Z,6.70
2018-11-14T09:12:38.001Z,6.80
2018-11-14T09:15:09.887Z,6.80
2018-11-14T09:17:41.812Z,7.00
2018-11-14T09:20:14.683Z,7.20
2018-11-14T09:22:46.268Z,7.30
2018-11-14T09:25:33.173Z,7.40
2018-11-14T09:28:04.317Z,7.50
2018-11-14T09:30:37.055Z,7.60
2018-11-14T09:33:08.176Z,7.70
2018-11-14T09:35:39.590Z,7.80
2018-11-14T09:38:10.482Z,7.80
2018-11-14T09:40:42.330Z,8.00
2018-11-14T09:43:13.093Z,8.00
2018-11-14T09:45:43.951Z,8.10
2018-11-14T09:48:17.212Z,8.20
2018-11-14T09:50:48.023Z,8.40
2018-11-14T09:53:21.131Z,8.60
2018-11-14T09:55:51.929Z,8.70
2018-11-14T09:58:24.946Z,8.80
2018-11-14T10:00:55.760Z,8.90
2018-11-14T10:03:26.572Z,9.00
2018-11-14T10:05:59.158Z,9.10
2018-11-14T10:08:29.928Z,9.30
2018-11-14T10:11:00.824Z,9.50
2018-11-14T10:13:31.646Z,9.80
2018-11-14T10:16:02.498Z,10.00
2018-11-14T10:18:33.375Z,10.20
2018-11-14T10:21:04.257Z,10.50
2018-11-14T10:23:35.019Z,10.70
2018-11-14T10:26:05.966Z,11.00
2018-11-14T10:28:36.861Z,11.20
2018-11-14T10:31:07.693Z,11.40
2018-11-14T10:33:38.545Z,11.60
2018-11-14T10:36:09.308Z,11.90
2018-11-14T10:38:40.143Z,12.00
2018-11-14T10:41:10.962Z,12.20
2018-11-14T10:43:41.806Z,12.30
2018-11-14T10:46:12.647Z,12.40
2018-11-14T10:48:43.767Z,12.40
2018-11-14T10:51:14.618Z,12.50
2018-11-14T10:53:45.513Z,12.60
2018-11-14T10:56:16.413Z,12.70
2018-11-14T10:58:47.200Z,12.70
2018-11-14T11:01:35.526Z,12.90
2018-11-14T11:04:23.677Z,13.00
2018-11-14T11:07:13.200Z,13.30
2018-11-14T11:10:01.209Z,13.30
2018-11-14T11:12:49.286Z,13.40
2018-11-14T11:15:37.548Z,13.50
2018-11-14T11:18:10.760Z,13.50
2018-11-14T11:20:41.621Z,13.60
2018-11-14T11:23:12.580Z,13.80
2018-11-14T11:25:43.369Z,13.90
2018-11-14T11:28:14.128Z,13.90
2018-11-14T11:30:45.041Z,13.80
2018-11-14T11:33:15.797Z,13.80
2018-11-14T11:35:48.714Z,13.70
2018-11-14T11:38:19.640Z,13.70
2018-11-14T11:40:50.581Z,13.80
2018-11-14T11:43:21.516Z,13.70
2018-11-14T11:45:52.334Z,13.70
2018-11-14T11:48:23.149Z,14.00
2018-11-14T11:50:53.915Z,14.10
2018-11-14T11:53:24.695Z,14.20
2018-11-14T11:55:55.593Z,14.10
2018-11-14T11:58:26.436Z,14.10
2018-11-14T12:00:57.227Z,14.20
2018-11-14T12:03:28.128Z,14.20
2018-11-14T12:05:59.041Z,14.40
2018-11-14T12:08:29.757Z,14.70
2018-11-14T12:11:03.688Z,14.50
2018-11-14T12:13:34.551Z,14.50
2018-11-14T12:16:05.431Z,14.30
2018-11-14T12:18:36.243Z,14.30
2018-11-14T12:21:07.613Z,14.30
2018-11-14T12:23:38.566Z,14.20
2018-11-14T12:26:09.329Z,14.10
2018-11-14T12:28:40.242Z,14.10
2018-11-14T12:31:12.168Z,14.20
2018-11-14T12:33:43.582Z,14.20
2018-11-14T12:36:14.518Z,14.00
2018-11-14T12:38:45.808Z,13.90
2018-11-14T12:41:16.692Z,13.90
2018-11-14T12:43:47.518Z,14.20
2018-11-14T12:46:18.177Z,14.30
2018-11-14T12:48:49.034Z,14.40
2018-11-14T12:51:20.006Z,14.40
2018-11-14T12:53:50.708Z,14.30
2018-11-14T12:56:21.563Z,14.30
2018-11-14T12:58:52.456Z,14.30
2018-11-14T13:01:23.406Z,14.30
2018-11-14T13:03:54.272Z,14.30
2018-11-14T13:06:25.269Z,14.40
2018-11-14T13:08:56.044Z,14.30
2018-11-14T13:11:26.864Z,14.30
2018-11-14T13:13:57.811Z,14.30
2018-11-14T13:16:28.697Z,14.30
2018-11-14T13:18:59.497Z,14.40
2018-11-14T13:21:30.523Z,14.60
2018-11-14T13:24:01.494Z,14.70
2018-11-14T13:26:32.416Z,14.70
2018-11-14T13:29:03.401Z,14.80
2018-11-14T13:31:34.407Z,14.60
2018-11-14T13:34:05.437Z,14.50
2018-11-14T13:36:36.396Z,14.50
2018-11-14T13:39:09.569Z,14.50
2018-11-14T13:41:40.659Z,14.30
2018-11-14T13:44:11.549Z,14.20
2018-11-14T13:46:42.452Z,14.30
2018-11-14T13:49:13.396Z,14.20
2018-11-14T13:51:44.095Z,14.20
2018-11-14T13:54:16.863Z,14.20
2018-11-14T13:56:47.732Z,14.40
2018-11-14T13:59:18.743Z,14.40
2018-11-14T14:01:50.394Z,14.30
2018-11-14T14:04:21.351Z,14.30
2018-11-14T14:06:52.203Z,14.20
2018-11-14T14:09:23.055Z,14.30
2018-11-14T14:11:53.967Z,14.10
2018-11-14T14:14:24.878Z,14.00
2018-11-14T14:16:55.788Z,14.00
2018-11-14T14:19:26.593Z,14.00
2018-11-14T14:21:57.470Z,13.90
2018-11-14T14:24:28.306Z,14.00
2018-11-14T14:26:59.310Z,14.10
2018-11-14T14:29:30.218Z,14.20
2018-11-14T14:32:01.165Z,14.20
2018-11-14T14:34:32.125Z,14.30
2018-11-14T14:37:03.051Z,14.10
2018-11-14T14:39:34.018Z,13.90
2018-11-14T14:42:04.997Z,13.90
2018-11-14T14:44:35.906Z,14.00
2018-11-14T14:47:07.026Z,14.10
2018-11-14T14:49:37.930Z,14.20
2018-11-14T14:52:08.776Z,14.30
2018-11-14T14:54:39.732Z,14.30
2018-11-14T14:57:10.587Z,14.00
2018-11-14T14:59:41.560Z,13.80
2018-11-14T15:02:12.457Z,13.60
2018-11-14T15:04:43.386Z,13.40
2018-11-14T15:07:14.197Z,13.30
2018-11-14T15:09:46.177Z,13.20
2018-11-14T15:12:17.050Z,13.10
2018-11-14T15:14:47.958Z,13.00
2018-11-14T15:17:18.777Z,12.90
2018-11-14T15:19:49.606Z,12.90
2018-11-14T15:22:20.420Z,12.80
2018-11-14T15:24:51.277Z,12.70
2018-11-14T15:27:22.213Z,12.60
2018-11-14T15:29:53.120Z,12.50
2018-11-14T15:32:24.147Z,12.40
2018-11-14T15:34:54.933Z,12.20
2018-11-14T15:37:25.846Z,12.10
2018-11-14T15:39:56.690Z,12.00
2018-11-14T15:42:27.578Z,11.90
2018-11-14T15:44:58.437Z,11.90
2018-11-14T15:47:29.312Z,11.80
2018-11-14T15:50:00.263Z,11.70
2018-11-14T15:52:31.147Z,11.50
2018-11-14T15:55:02.094Z,11.40
2018-11-14T15:57:33.140Z,11.30
2018-11-14T16:00:04.103Z,11.20
2018-11-14T16:02:35.014Z,11.20
2018-11-14T16:05:06.388Z,11.20
2018-11-14T16:07:37.091Z,11.20
2018-11-14T16:10:09.720Z,11.20
2018-11-14T16:12:41.304Z,11.10
2018-11-14T16:15:13.626Z,10.90
2018-11-14T16:17:44.851Z,10.90
2018-11-14T16:20:20.233Z,10.70
2018-11-14T16:22:51.322Z,10.60
2018-11-14T16:25:23.422Z,10.60
2018-11-14T16:27:55.647Z,10.50
2018-11-14T16:30:51.047Z,10.50
2018-11-14T16:33:21.990Z,10.40
2018-11-14T16:35:52.945Z,10.40
2018-11-14T16:38:25.123Z,10.50
2018-11-14T16:40:56.055Z,10.40
2018-11-14T16:43:26.880Z,10.30
2018-11-14T16:45:57.790Z,10.20
2018-11-14T16:48:28.741Z,10.10
2018-11-14T16:50:59.516Z,10.10
2018-11-14T16:53:30.300Z,10.10
2018-11-14T16:56:01.147Z,10.00
2018-11-14T16:58:32.091Z,10.00
2018-11-14T17:01:02.926Z,9.90
2018-11-14T17:03:33.808Z,9.90
2018-11-14T17:06:04.621Z,9.80
2018-11-14T17:08:35.418Z,9.80
2018-11-14T17:11:06.399Z,9.80
2018-11-14T17:13:37.288Z,9.80
2018-11-14T17:16:08.074Z,9.70
2018-11-14T17:18:38.834Z,9.60
2018-11-14T17:21:09.753Z,9.50
2018-11-14T17:23:40.736Z,9.40
2018-11-14T17:26:11.641Z,9.20
2018-11-14T17:28:42.424Z,9.10
2018-11-14T17:31:13.312Z,9.10
2018-11-14T17:33:44.093Z,9.10
2018-11-14T17:36:15.036Z,9.10
2018-11-14T17:38:46.429Z,9.10
2018-11-14T17:41:17.443Z,9.00
2018-11-14T17:43:48.569Z,9.00
2018-11-14T17:46:19.665Z,9.00
2018-11-14T17:48:50.710Z,8.90
2018-11-14T17:51:21.604Z,8.80
2018-11-14T17:53:52.459Z,8.70
2018-11-14T17:56:23.361Z,8.60
2018-11-14T17:58:54.202Z,8.60
2018-11-14T18:01:25.045Z,8.60
2018-11-14T18:03:55.966Z,8.60
2018-11-14T18:06:26.844Z,8.50
2018-11-14T18:08:57.752Z,8.50
2018-11-14T18:11:29.608Z,8.60
2018-11-14T18:14:02.441Z,8.60
2018-11-14T18:16:33.434Z,8.50
2018-11-14T18:19:04.469Z,8.50
2018-11-14T18:21:35.436Z,8.50
2018-11-14T18:24:06.484Z,8.40
2018-11-14T18:26:37.450Z,8.30
2018-11-14T18:29:08.285Z,8.20
2018-11-14T18:31:39.239Z,8.20
2018-11-14T18:34:10.097Z,8.30
2018-11-14T18:37:29.070Z,8.40
2018-11-14T18:40:00.104Z,8.60
2018-11-14T18:42:31.175Z,8.80
2018-11-14T18:45:02.106Z,9.00
2018-11-14T18:47:33.095Z,9.30
2018-11-14T18:50:04.177Z,9.60
2018-11-14T18:52:35.122Z,10.10
2018-11-14T18:55:06.815Z,10.30
2018-11-14T18:57:37.888Z,10.40
2018-11-14T19:00:11.623Z,10.40
2018-11-14T19:02:42.838Z,10.50
2018-11-14T19:05:14.215Z,10.40
2018-11-14T19:07:45.256Z,10.30
2018-11-14T19:10:17.453Z,10.20
2018-11-14T19:12:48.838Z,10.00
2018-11-14T19:15:30.037Z,9.70
2018-11-14T19:18:00.976Z,9.40
2018-11-14T19:20:32.971Z,9.10
2018-11-14T19:23:04.956Z,8.90
2018-11-14T19:25:37.003Z,8.70
2018-11-14T19:28:08.135Z,8.50
2018-11-14T19:30:39.397Z,8.30
2018-11-14T19:33:10.235Z,8.10
2018-11-14T19:35:41.195Z,8.00
2018-11-14T19:38:12.050Z,7.90
2018-11-14T19:40:42.904Z,7.70
2018-11-14T19:43:14.027Z,7.60
2018-11-14T19:45:46.118Z,7.50
2018-11-14T19:48:17.270Z,7.40
2018-11-14T19:50:48.124Z,7.30
2018-11-14T19:53:19.012Z,7.20
2018-11-14T19:55:49.963Z,7.10
2018-11-14T19:58:20.841Z,7.10
2018-11-14T20:00:51.829Z,7.00
2018-11-14T20:03:22.785Z,7.00
2018-11-14T20:05:53.689Z,6.90
2018-11-14T20:08:24.565Z,6.90
2018-11-14T20:10:55.459Z,6.90
2018-11-14T20:13:26.371Z,6.90
2018-11-14T20:15:57.280Z,6.80
2018-11-14T20:18:28.288Z,6.80
2018-11-14T20:20:59.258Z,6.70
2018-11-14T20:23:30.219Z,6.70
2018-11-14T20:26:02.721Z,6.60
2018-11-14T20:28:33.495Z,6.60
2018-11-14T20:31:04.423Z,6.60
2018-11-14T20:33:35.504Z,6.50
2018-11-14T20:36:06.434Z,6.50
2018-11-14T20:38:37.304Z,6.40
2018-11-14T20:41:08.165Z,6.40
2018-11-14T20:43:39.057Z,6.40
2018-11-14T20:46:09.962Z,6.40
2018-11-14T20:48:40.887Z,6.30
2018-11-14T20:51:11.734Z,6.30
2018-11-14T20:53:42.938Z,6.30
2018-11-14T20:56:14.070Z,6.20
2018-11-14T20:58:45.106Z,6.20
2018-11-14T21:01:16.107Z,6.20
2018-11-14T21:03:46.983Z,6.10
2018-11-14T21:06:17.936Z,6.10
2018-11-14T21:08:48.915Z,6.00
2018-11-14T21:11:19.788Z,6.00
2018-11-14T21:13:50.583Z,5.90
2018-11-14T21:16:21.478Z,5.90
2018-11-14T21:18:52.277Z,5.90
2018-11-14T21:21:23.151Z,5.80
2018-11-14T21:23:54.185Z,5.80
2018-11-14T21:26:25.131Z,5.70
2018-11-14T21:28:56.077Z,5.70
2018-11-14T21:31:26.890Z,5.60
2018-11-14T21:33:57.802Z,5.60
2018-11-14T21:36:28.719Z,5.60
2018-11-14T21:38:59.581Z,5.50
2018-11-14T21:41:30.566Z,5.50
2018-11-14T21:44:01.278Z,5.50
2018-11-14T21:46:32.166Z,5.50
2018-11-14T21:49:03.082Z,5.50
2018-11-14T21:51:33.906Z,5.40
2018-11-14T21:54:04.730Z,5.40
2018-11-14T21:56:35.547Z,5.40
2018-11-14T21:59:06.328Z,5.30
2018-11-14T22:01:37.189Z,5.30
2018-11-14T22:04:08.238Z,5.30
2018-11-14T22:06:39.211Z,5.30
2018-11-14T22:09:13.898Z,5.20
2018-11-14T22:11:44.829Z,5.20
2018-11-14T22:14:15.509Z,5.20
2018-11-14T22:16:46.304Z,5.10
2018-11-14T22:19:17.423Z,5.10
2018-11-14T22:21:48.286Z,5.10
2018-11-14T22:24:19.203Z,5.10
2018-11-14T22:26:50.619Z,5.00
2018-11-14T22:29:21.466Z,5.00
2018-11-14T22:31:52.383Z,5.00
2018-11-14T22:34:23.255Z,4.90
2018-11-14T22:36:54.143Z,4.90
2018-11-14T22:39:24.913Z,4.90
2018-11-14T22:41:55.792Z,4.90
2018-11-14T22:44:26.562Z,4.90
2018-11-14T22:46:57.560Z,4.80
2018-11-14T22:49:28.416Z,4.80
2018-11-14T22:51:59.218Z,4.80
2018-11-14T22:54:30.018Z,4.80
2018-11-14T22:57:00.737Z,4.80
2018-11-14T22:59:31.592Z,4.80
2018-11-14T23:02:02.517Z,4.70
2018-11-14T23:04:33.424Z,4.70
2018-11-14T23:07:04.223Z,4.70
2018-11-14T23:09:35.137Z,4.60
2018-11-14T23:12:06.063Z,4.60
2018-11-14T23:14:36.925Z,4.60
2018-11-14T23:17:07.739Z,4.60
2018-11-14T23:19:38.573Z,4.50
2018-11-14T23:22:09.453Z,4.50
2018-11-14T23:24:40.637Z,4.40
2018-11-14T23:27:11.434Z,4.40
2018-11-14T23:29:42.421Z,4.40
2018-11-14T23:32:13.363Z,4.30
2018-11-14T23:35:01.335Z,4.30
2018-11-14T23:37:32.249Z,4.30
2018-11-14T23:40:03.094Z,4.20
2018-11-14T23:42:33.863Z,4.20
2018-11-14T23:45:04.999Z,4.20
2018-11-14T23:47:35.898Z,4.10
2018-11-14T23:50:12.720Z,4.10
2018-11-14T23:52:44.751Z,4.00
2018-11-14T23:55:16.142Z,3.90
2018-11-14T23:57:47.025Z,3.90
